sensor_id;sensor_type;location;lat;lon;timestamp;pressure;altitude;pressure_sealevel;temperature;humidity
14041;BME280;7095;51.388;6.196;2023-01-04T00:00:33;55066.06;;;-145.32;100.00
14041;BME280;7095;51.388;6.196;2023-01-04T00:03:02;55093.91;;;-145.32;100.00
14041;BME280;7095;51.388;6.196;2023-01-04T00:05:31;55089.94;;;-145.32;100.00
14041;BME280;7095;51.388;6.196;2023-01-04T00:08:02;55139.66;;;-145.32;100.00
14041;BME280;7095;51.388;6.196;2023-01-04T00:10:31;55179.44;;;-145.32;100.00
14041;BME280;7095;51.388;6.196;2023-01-04T00:12:59;55173.47;;;-145.32;100.00
14041;BME280;7095;51.388;6.196;2023-01-04T00:15:29;55141.63;;;-145.32;100.00
14041;BME280;7095;51.388;6.196;2023-01-04T00:17:58;55181.41;;;-145.32;100.00
14041;BME280;7095;51.388;6.196;2023-01-04T00:20:26;55207.28;;;-145.32;100.00
14041;BME280;7095;51.388;6.196;2023-01-04T00:22:55;55239.09;;;-145.32;100.00
14041;BME280;7095;51.388;6.196;2023-01-04T00:25:23;55304.75;;;-145.32;100.00
14041;BME280;7095;51.388;6.196;2023-01-04T00:27:52;55406.19;;;-145.32;100.00
14041;BME280;7095;51.388;6.196;2023-01-04T00:30:20;55487.75;;;-145.32;100.00
14041;BME280;7095;51.388;6.196;2023-01-04T00:32:51;55710.56;;;-145.32;100.00
14041;BME280;7095;51.388;6.196;2023-01-04T00:35:19;55901.53;;;-145.32;100.00
14041;BME280;7095;51.388;6.196;2023-01-04T00:38:08;56132.31;;;-145.32;100.00
14041;BME280;7095;51.388;6.196;2023-01-04T00:40:36;56410.88;;;-145.32;100.00
14041;BME280;7095;51.388;6.196;2023-01-04T00:43:05;56683.47;;;-145.32;100.00
14041;BME280;7095;51.388;6.196;2023-01-04T00:45:33;57019.81;;;-145.32;100.00
14041;BME280;7095;51.388;6.196;2023-01-04T00:48:03;57352.16;;;-145.32;100.00
14041;BME280;7095;51.388;6.196;2023-01-04T00:50:32;57764.19;;;-145.32;100.00
14041;BME280;7095;51.388;6.196;2023-01-04T00:53:01;58186.22;;;-145.32;100.00
14041;BME280;7095;51.388;6.196;2023-01-04T00:55:30;58606.31;;;-145.32;100.00
14041;BME280;7095;51.388;6.196;2023-01-04T00:57:58;58681.97;;;-145.32;100.00
14041;BME280;7095;51.388;6.196;2023-01-04T01:00:27;58904.97;;;-145.32;100.00
14041;BME280;7095;51.388;6.196;2023-01-04T01:02:55;59237.53;;;-145.32;100.00
14041;BME280;7095;51.388;6.196;2023-01-04T01:05:29;59779.25;;;-145.32;100.00
14041;BME280;7095;51.388;6.196;2023-01-04T01:07:58;59990.38;;;-145.32;100.00
14041;BME280;7095;51.388;6.196;2023-01-04T01:10:46;60157.69;;;-145.32;100.00
14041;BME280;7095;51.388;6.196;2023-01-04T01:13:15;60366.84;;;-145.32;100.00
14041;BME280;7095;51.388;6.196;2023-01-04T01:15:44;60663.69;;;-145.32;100.00
14041;BME280;7095;51.388;6.196;2023-01-04T01:18:13;61201.63;;;-145.32;100.00
14041;BME280;7095;51.388;6.196;2023-01-04T01:20:44;61809.44;;;-145.32;100.00
14041;BME280;7095;51.388;6.196;2023-01-04T01:23:13;62666.50;;;-145.32;100.00
14041;BME280;7095;51.388;6.196;2023-01-04T01:25:42;63932.56;;;-145.32;100.00
14041;BME280;7095;51.388;6.196;2023-01-04T01:28:13;64901.88;;;-145.32;100.00
14041;BME280;7095;51.388;6.196;2023-01-04T01:30:42;67519.97;;;-145.32;100.00
14041;BME280;7095;51.388;6.196;2023-01-04T01:33:10;70299.94;;;-145.32;100.00
14041;BME280;7095;51.388;6.196;2023-01-04T01:35:39;72978.16;;;-145.32;100.00
14041;BME280;7095;51.388;6.196;2023-01-04T01:38:08;75026.22;;;-145.32;100.00
14041;BME280;7095;51.388;6.196;2023-01-04T01:40:40;77331.78;;;-145.32;100.00
14041;BME280;7095;51.388;6.196;2023-01-04T01:43:15;79126.03;;;-145.32;100.00
14041;BME280;7095;51.388;6.196;2023-01-04T01:45:46;80664.72;;;-145.32;100.00
14041;BME280;7095;51.388;6.196;2023-01-04T01:48:19;82460.72;;;-145.32;100.00
14041;BME280;7095;51.388;6.196;2023-01-04T01:50:53;84257.66;;;-145.32;100.00
14041;BME280;7095;51.388;6.196;2023-01-04T01:53:26;85798.66;;;-145.32;100.00
14041;BME280;7095;51.388;6.196;2023-01-04T01:55:56;87340.31;;;-145.32;100.00
14041;BME280;7095;51.388;6.196;2023-01-04T01:58:31;88882.69;;;-145.32;100.00
14041;BME280;7095;51.388;6.196;2023-01-04T02:01:02;89396.97;;;-145.32;100.00
14041;BME280;7095;51.388;6.196;2023-01-04T02:03:32;90168.50;;;-145.32;100.00
14041;BME280;7095;51.388;6.196;2023-01-04T02:06:05;90682.97;;;-145.32;100.00
14041;BME280;7095;51.388;6.196;2023-01-04T02:08:36;91197.50;;;-145.32;100.00
14041;BME280;7095;51.388;6.196;2023-01-04T02:11:05;91712.13;;;-145.32;100.00
14041;BME280;7095;51.388;6.196;2023-01-04T02:13:35;92484.19;;;-145.32;100.00
14041;BME280;7095;51.388;6.196;2023-01-04T02:16:30;92999.00;;;-145.32;100.00
14041;BME280;7095;51.388;6.196;2023-01-04T02:19:07;92226.81;;;-145.32;100.00
14041;BME280;7095;51.388;6.196;2023-01-04T02:21:51;92484.19;;;-145.32;100.00
14041;BME280;7095;51.388;6.196;2023-01-04T02:24:39;92226.81;;;-145.32;100.00
14041;BME280;7095;51.388;6.196;2023-01-04T02:27:28;91969.47;;;-145.32;100.00
14041;BME280;7095;51.388;6.196;2023-01-04T02:30:28;91712.13;;;-145.32;100.00
14041;BME280;7095;51.388;6.196;2023-01-04T02:33:12;91197.50;;;-145.32;100.00
14041;BME280;7095;51.388;6.196;2023-01-04T02:35:48;90940.22;;;-145.32;100.00
14041;BME280;7095;51.388;6.196;2023-01-04T02:38:23;90682.97;;;-145.32;100.00
14041;BME280;7095;51.388;6.196;2023-01-04T02:41:02;90168.50;;;-145.32;100.00
14041;BME280;7095;51.388;6.196;2023-01-04T02:43:38;89654.13;;;-145.32;100.00
14041;BME280;7095;51.388;6.196;2023-01-04T02:46:32;88882.69;;;-145.32;100.00
14041;BME280;7095;51.388;6.196;2023-01-04T02:49:04;88625.56;;;-145.32;100.00
14041;BME280;7095;51.388;6.196;2023-01-04T02:51:50;88111.41;;;-145.32;100.00
14041;BME280;7095;51.388;6.196;2023-01-04T02:54:22;86826.34;;;-145.32;100.00
14041;BME280;7095;51.388;6.196;2023-01-04T02:57:18;85028.06;;;-145.32;100.00
14041;BME280;7095;51.388;6.196;2023-01-04T03:00:03;84771.25;;;-145.32;100.00
14041;BME280;7095;51.388;6.196;2023-01-04T03:02:48;83487.44;;;-145.32;100.00
14041;BME280;7095;51.388;6.196;2023-01-04T03:05:49;82974.03;;;-145.32;100.00
14041;BME280;7095;51.388;6.196;2023-01-04T03:08:50;82460.72;;;-145.32;100.00
14041;BME280;7095;51.388;6.196;2023-01-04T03:11:23;81947.50;;;-145.32;100.00
14041;BME280;7095;51.388;6.196;2023-01-04T03:14:15;80921.25;;;-145.32;100.00
14041;BME280;7095;51.388;6.196;2023-01-04T03:17:01;80921.25;;;-145.32;100.00
14041;BME280;7095;51.388;6.196;2023-01-04T03:19:34;80921.25;;;-145.32;100.00
14041;BME280;7095;51.388;6.196;2023-01-04T03:22:26;80664.72;;;-145.32;100.00
14041;BME280;7095;51.388;6.196;2023-01-04T03:25:15;80151.75;;;-145.32;100.00
14041;BME280;7095;51.388;6.196;2023-01-04T03:28:05;80408.22;;;-145.32;100.00
14041;BME280;7095;51.388;6.196;2023-01-04T03:30:57;80408.22;;;-145.32;100.00
14041;BME280;7095;51.388;6.196;2023-01-04T03:33:46;80664.72;;;-145.32;100.00
14041;BME280;7095;51.388;6.196;2023-01-04T03:36:43;81434.31;;;-145.32;100.00
14041;BME280;7095;51.388;6.196;2023-01-04T03:39:23;81947.50;;;-145.32;100.00
14041;BME280;7095;51.388;6.196;2023-01-04T03:42:13;82717.38;;;-145.32;100.00
14041;BME280;7095;51.388;6.196;2023-01-04T03:45:10;83230.72;;;-145.32;100.00
14041;BME280;7095;51.388;6.196;2023-01-04T03:48:03;83744.16;;;-145.32;100.00
14041;BME280;7095;51.388;6.196;2023-01-04T03:50:59;83744.16;;;-145.32;100.00
14041;BME280;7095;51.388;6.196;2023-01-04T03:53:32;84000.91;;;-145.32;100.00
14041;BME280;7095;51.388;6.196;2023-01-04T03:56:06;83230.72;;;-145.32;100.00
14041;BME280;7095;51.388;6.196;2023-01-04T03:58:36;82717.38;;;-145.32;100.00
14041;BME280;7095;51.388;6.196;2023-01-04T04:01:06;82204.09;;;-145.32;100.00
14041;BME280;7095;51.388;6.196;2023-01-04T04:03:34;81947.50;;;-145.32;100.00
14041;BME280;7095;51.388;6.196;2023-01-04T04:06:20;81690.91;;;-145.32;100.00
14041;BME280;7095;51.388;6.196;2023-01-04T04:09:06;82204.09;;;-145.32;100.00
14041;BME280;7095;51.388;6.196;2023-01-04T04:11:37;82460.72;;;-145.32;100.00
14041;BME280;7095;51.388;6.196;2023-01-04T04:14:05;82717.38;;;-145.32;100.00
14041;BME280;7095;51.388;6.196;2023-01-04T04:16:34;82974.03;;;-145.32;100.00
14041;BME280;7095;51.388;6.196;2023-01-04T04:19:03;82974.03;;;-145.32;100.00
14041;BME280;7095;51.388;6.196;2023-01-04T04:21:35;83230.72;;;-145.32;100.00
14041;BME280;7095;51.388;6.196;2023-01-04T04:24:05;83230.72;;;-145.32;100.00
14041;BME280;7095;51.388;6.196;2023-01-04T04:26:34;83487.44;;;-145.32;100.00
14041;BME280;7095;51.388;6.196;2023-01-04T04:29:04;84514.44;;;-145.32;100.00
14041;BME280;7095;51.388;6.196;2023-01-04T04:31:32;85541.78;;;-145.32;100.00
14041;BME280;7095;51.388;6.196;2023-01-04T04:34:01;86312.47;;;-145.32;100.00
14041;BME280;7095;51.388;6.196;2023-01-04T04:36:30;87340.31;;;-145.32;100.00
14041;BME280;7095;51.388;6.196;2023-01-04T04:38:58;88625.56;;;-145.32;100.00
14041;BME280;7095;51.388;6.196;2023-01-04T04:41:26;89396.97;;;-145.32;100.00
14041;BME280;7095;51.388;6.196;2023-01-04T04:44:10;90425.72;;;-145.32;100.00
14041;BME280;7095;51.388;6.196;2023-01-04T04:46:39;91197.50;;;-145.32;100.00
14041;BME280;7095;51.388;6.196;2023-01-04T04:49:09;91712.13;;;-145.32;100.00
14041;BME280;7095;51.388;6.196;2023-01-04T04:51:38;92226.81;;;-145.32;100.00
14041;BME280;7095;51.388;6.196;2023-01-04T04:54:08;92226.81;;;-145.32;100.00
14041;BME280;7095;51.388;6.196;2023-01-04T04:56:37;92226.81;;;-145.32;100.00
14041;BME280;7095;51.388;6.196;2023-01-04T04:59:06;92741.59;;;-145.32;100.00
14041;BME280;7095;51.388;6.196;2023-01-04T05:01:35;92741.59;;;-145.32;100.00
14041;BME280;7095;51.388;6.196;2023-01-04T05:04:04;92999.00;;;-145.32;100.00
14041;BME280;7095;51.388;6.196;2023-01-04T05:06:33;92999.00;;;-145.32;100.00
14041;BME280;7095;51.388;6.196;2023-01-04T05:09:02;92999.00;;;-145.32;100.00
14041;BME280;7095;51.388;6.196;2023-01-04T05:11:33;92999.00;;;-145.32;100.00
14041;BME280;7095;51.388;6.196;2023-01-04T05:14:21;92484.19;;;-145.32;100.00
14041;BME280;7095;51.388;6.196;2023-01-04T05:16:52;92226.81;;;-145.32;100.00
14041;BME280;7095;51.388;6.196;2023-01-04T05:19:20;92226.81;;;-145.32;100.00
14041;BME280;7095;51.388;6.196;2023-01-04T05:21:49;91969.47;;;-145.32;100.00
14041;BME280;7095;51.388;6.196;2023-01-04T05:24:17;91712.13;;;-145.32;100.00
14041;BME280;7095;51.388;6.196;2023-01-04T05:26:46;91197.50;;;-145.32;100.00
14041;BME280;7095;51.388;6.196;2023-01-04T05:29:14;90682.97;;;-145.32;100.00
14041;BME280;7095;51.388;6.196;2023-01-04T05:31:58;90682.97;;;-145.32;100.00
14041;BME280;7095;51.388;6.196;2023-01-04T05:34:27;90682.97;;;-145.32;100.00
14041;BME280;7095;51.388;6.196;2023-01-04T05:36:56;90425.72;;;-145.32;100.00
14041;BME280;7095;51.388;6.196;2023-01-04T05:39:24;90682.97;;;-145.32;100.00
14041;BME280;7095;51.388;6.196;2023-01-04T05:41:53;90425.72;;;-145.32;100.00
14041;BME280;7095;51.388;6.196;2023-01-04T05:44:38;90425.72;;;-145.32;100.00
14041;BME280;7095;51.388;6.196;2023-01-04T05:47:08;89911.31;;;-145.32;100.00
14041;BME280;7095;51.388;6.196;2023-01-04T05:49:41;89911.31;;;-145.32;100.00
14041;BME280;7095;51.388;6.196;2023-01-04T05:52:10;89654.13;;;-145.32;100.00
14041;BME280;7095;51.388;6.196;2023-01-04T05:54:38;89139.81;;;-145.32;100.00
14041;BME280;7095;51.388;6.196;2023-01-04T05:57:08;89654.13;;;-145.32;100.00
14041;BME280;7095;51.388;6.196;2023-01-04T05:59:37;89654.13;;;-145.32;100.00
14041;BME280;7095;51.388;6.196;2023-01-04T06:02:15;89654.13;;;-145.32;100.00
14041;BME280;7095;51.388;6.196;2023-01-04T06:04:44;89654.13;;;-145.32;100.00
14041;BME280;7095;51.388;6.196;2023-01-04T06:07:20;89911.31;;;-145.32;100.00
14041;BME280;7095;51.388;6.196;2023-01-04T06:09:49;90168.50;;;-145.32;100.00
14041;BME280;7095;51.388;6.196;2023-01-04T06:12:18;90168.50;;;-145.32;100.00
14041;BME280;7095;51.388;6.196;2023-01-04T06:14:46;89911.31;;;-145.32;100.00
14041;BME280;7095;51.388;6.196;2023-01-04T06:17:17;89396.97;;;-145.32;100.00
14041;BME280;7095;51.388;6.196;2023-01-04T06:19:45;89396.97;;;-145.32;100.00
14041;BME280;7095;51.388;6.196;2023-01-04T06:22:14;89396.97;;;-145.32;100.00
14041;BME280;7095;51.388;6.196;2023-01-04T06:24:42;88882.69;;;-145.32;100.00
14041;BME280;7095;51.388;6.196;2023-01-04T06:27:13;88882.69;;;-145.32;100.00
14041;BME280;7095;51.388;6.196;2023-01-04T06:29:44;88111.41;;;-145.32;100.00
14041;BME280;7095;51.388;6.196;2023-01-04T06:32:12;87854.38;;;-145.32;100.00
14041;BME280;7095;51.388;6.196;2023-01-04T06:34:46;86826.34;;;-145.32;100.00
14041;BME280;7095;51.388;6.196;2023-01-04T06:37:14;86055.56;;;-145.32;100.00
14041;BME280;7095;51.388;6.196;2023-01-04T06:39:43;85541.78;;;-145.32;100.00
14041;BME280;7095;51.388;6.196;2023-01-04T06:42:11;85028.06;;;-145.32;100.00
14041;BME280;7095;51.388;6.196;2023-01-04T06:44:53;84771.25;;;-145.32;100.00
14041;BME280;7095;51.388;6.196;2023-01-04T06:47:22;84257.66;;;-145.32;100.00
14041;BME280;7095;51.388;6.196;2023-01-04T06:49:52;84514.44;;;-145.32;100.00
14041;BME280;7095;51.388;6.196;2023-01-04T06:52:21;84771.25;;;-145.32;100.00
14041;BME280;7095;51.388;6.196;2023-01-04T06:54:50;85541.78;;;-145.32;100.00
14041;BME280;7095;51.388;6.196;2023-01-04T06:57:18;86312.47;;;-145.32;100.00
14041;BME280;7095;51.388;6.196;2023-01-04T06:59:47;87083.34;;;-145.32;100.00
14041;BME280;7095;51.388;6.196;2023-01-04T07:02:15;87597.34;;;-145.32;100.00
14041;BME280;7095;51.388;6.196;2023-01-04T07:04:45;88625.56;;;-145.32;100.00
14041;BME280;7095;51.388;6.196;2023-01-04T07:07:15;89396.97;;;-145.32;100.00
14041;BME280;7095;51.388;6.196;2023-01-04T07:09:44;89396.97;;;-145.32;100.00
14041;BME280;7095;51.388;6.196;2023-01-04T07:12:13;89654.13;;;-145.32;100.00
14041;BME280;7095;51.388;6.196;2023-01-04T07:14:42;90168.50;;;-145.32;100.00
14041;BME280;7095;51.388;6.196;2023-01-04T07:17:11;90425.72;;;-145.32;100.00
14041;BME280;7095;51.388;6.196;2023-01-04T07:19:40;90940.22;;;-145.32;100.00
14041;BME280;7095;51.388;6.196;2023-01-04T07:22:08;90940.22;;;-145.32;100.00
14041;BME280;7095;51.388;6.196;2023-01-04T07:24:38;90940.22;;;-145.32;100.00
14041;BME280;7095;51.388;6.196;2023-01-04T07:27:08;90682.97;;;-145.32;100.00
14041;BME280;7095;51.388;6.196;2023-01-04T07:29:37;90425.72;;;-145.32;100.00
14041;BME280;7095;51.388;6.196;2023-01-04T07:32:10;90168.50;;;-145.32;100.00
14041;BME280;7095;51.388;6.196;2023-01-04T07:34:40;89396.97;;;-145.32;100.00
14041;BME280;7095;51.388;6.196;2023-01-04T07:37:09;89139.81;;;-145.32;100.00
14041;BME280;7095;51.388;6.196;2023-01-04T07:39:40;88368.50;;;-145.32;100.00
14041;BME280;7095;51.388;6.196;2023-01-04T07:42:10;88368.50;;;-145.32;100.00
14041;BME280;7095;51.388;6.196;2023-01-04T07:44:39;88625.56;;;-145.32;100.00
14041;BME280;7095;51.388;6.196;2023-01-04T07:47:07;89139.81;;;-145.32;100.00
14041;BME280;7095;51.388;6.196;2023-01-04T07:49:36;89396.97;;;-145.32;100.00
14041;BME280;7095;51.388;6.196;2023-01-04T07:52:04;89654.13;;;-145.32;100.00
14041;BME280;7095;51.388;6.196;2023-01-04T07:54:33;90425.72;;;-145.32;100.00
14041;BME280;7095;51.388;6.196;2023-01-04T07:57:03;90940.22;;;-145.32;100.00
14041;BME280;7095;51.388;6.196;2023-01-04T07:59:31;91712.13;;;-145.32;100.00
14041;BME280;7095;51.388;6.196;2023-01-04T08:02:00;92226.81;;;-145.32;100.00
14041;BME280;7095;51.388;6.196;2023-01-04T08:04:29;92226.81;;;-145.32;100.00
14041;BME280;7095;51.388;6.196;2023-01-04T08:07:01;92226.81;;;-145.32;100.00
14041;BME280;7095;51.388;6.196;2023-01-04T08:09:30;92484.19;;;-145.32;100.00
14041;BME280;7095;51.388;6.196;2023-01-04T08:12:00;92484.19;;;-145.32;100.00
14041;BME280;7095;51.388;6.196;2023-01-04T08:14:30;91712.13;;;-145.32;100.00
14041;BME280;7095;51.388;6.196;2023-01-04T08:16:59;91197.50;;;-145.32;100.00
14041;BME280;7095;51.388;6.196;2023-01-04T08:19:27;90940.22;;;-145.32;100.00
14041;BME280;7095;51.388;6.196;2023-01-04T08:21:55;90682.97;;;-145.32;100.00
14041;BME280;7095;51.388;6.196;2023-01-04T08:24:24;90425.72;;;-145.32;100.00
14041;BME280;7095;51.388;6.196;2023-01-04T08:26:53;90168.50;;;-145.32;100.00
14041;BME280;7095;51.388;6.196;2023-01-04T08:29:22;90168.50;;;-145.32;100.00
14041;BME280;7095;51.388;6.196;2023-01-04T08:32:00;89654.13;;;-145.32;100.00
14041;BME280;7095;51.388;6.196;2023-01-04T08:34:28;88625.56;;;-145.32;100.00
14041;BME280;7095;51.388;6.196;2023-01-04T08:36:58;88368.50;;;-145.32;100.00
14041;BME280;7095;51.388;6.196;2023-01-04T08:39:27;88111.41;;;-145.32;100.00
14041;BME280;7095;51.388;6.196;2023-01-04T08:42:01;88368.50;;;-145.32;100.00
14041;BME280;7095;51.388;6.196;2023-01-04T08:44:48;88882.69;;;-145.32;100.00
14041;BME280;7095;51.388;6.196;2023-01-04T08:47:26;88882.69;;;-145.32;100.00
14041;BME280;7095;51.388;6.196;2023-01-04T08:49:55;89396.97;;;-145.32;100.00
14041;BME280;7095;51.388;6.196;2023-01-04T08:52:27;88882.69;;;-145.32;100.00
14041;BME280;7095;51.388;6.196;2023-01-04T08:54:56;89396.97;;;-145.32;100.00
14041;BME280;7095;51.388;6.196;2023-01-04T08:57:25;89911.31;;;-145.32;100.00
14041;BME280;7095;51.388;6.196;2023-01-04T08:59:54;90168.50;;;-145.32;100.00
14041;BME280;7095;51.388;6.196;2023-01-04T09:02:44;90168.50;;;-145.32;100.00
14041;BME280;7095;51.388;6.196;2023-01-04T09:05:14;90940.22;;;-145.32;100.00
14041;BME280;7095;51.388;6.196;2023-01-04T09:07:49;91197.50;;;-145.32;100.00
14041;BME280;7095;51.388;6.196;2023-01-04T09:10:18;90940.22;;;-145.32;100.00
14041;BME280;7095;51.388;6.196;2023-01-04T09:12:47;90425.72;;;-145.32;100.00
14041;BME280;7095;51.388;6.196;2023-01-04T09:15:16;90682.97;;;-145.32;100.00
14041;BME280;7095;51.388;6.196;2023-01-04T09:17:48;90425.72;;;-145.32;100.00
14041;BME280;7095;51.388;6.196;2023-01-04T09:20:37;90168.50;;;-145.32;100.00
14041;BME280;7095;51.388;6.196;2023-01-04T09:23:05;89911.31;;;-145.32;100.00
14041;BME280;7095;51.388;6.196;2023-01-04T09:25:34;89396.97;;;-145.32;100.00
14041;BME280;7095;51.388;6.196;2023-01-04T09:28:05;89139.81;;;-145.32;100.00
14041;BME280;7095;51.388;6.196;2023-01-04T09:30:34;88625.56;;;-145.32;100.00
14041;BME280;7095;51.388;6.196;2023-01-04T09:33:04;86826.34;;;-145.32;100.00
14041;BME280;7095;51.388;6.196;2023-01-04T09:35:33;85798.66;;;-145.32;100.00
14041;BME280;7095;51.388;6.196;2023-01-04T09:38:02;83487.44;;;-145.32;100.00
14041;BME280;7095;51.388;6.196;2023-01-04T09:40:36;81690.91;;;-145.32;100.00
14041;BME280;7095;51.388;6.196;2023-01-04T09:43:15;80408.22;;;-145.32;100.00
14041;BME280;7095;51.388;6.196;2023-01-04T09:45:52;79638.84;;;-145.32;100.00
14041;BME280;7095;51.388;6.196;2023-01-04T09:48:28;78356.94;;;-145.32;100.00
14041;BME280;7095;51.388;6.196;2023-01-04T09:51:00;77331.78;;;-145.32;100.00
14041;BME280;7095;51.388;6.196;2023-01-04T09:53:35;77075.53;;;-145.32;100.00
14041;BME280;7095;51.388;6.196;2023-01-04T09:56:11;78100.63;;;-145.32;100.00
14041;BME280;7095;51.388;6.196;2023-01-04T09:58:44;79638.84;;;-145.32;100.00
14041;BME280;7095;51.388;6.196;2023-01-04T10:01:15;81690.91;;;-145.32;100.00
14041;BME280;7095;51.388;6.196;2023-01-04T10:03:53;82204.09;;;-145.32;100.00
14041;BME280;7095;51.388;6.196;2023-01-04T10:06:24;82974.03;;;-145.32;100.00
14041;BME280;7095;51.388;6.196;2023-01-04T10:08:58;84000.91;;;-145.32;100.00
14041;BME280;7095;51.388;6.196;2023-01-04T10:11:40;84514.44;;;-145.32;100.00
14041;BME280;7095;51.388;6.196;2023-01-04T10:14:21;84771.25;;;-145.32;100.00
14041;BME280;7095;51.388;6.196;2023-01-04T10:17:07;84771.25;;;-145.32;100.00
14041;BME280;7095;51.388;6.196;2023-01-04T10:20:02;84771.25;;;-145.32;100.00
14041;BME280;7095;51.388;6.196;2023-01-04T10:23:01;85284.91;;;-145.32;100.00
14041;BME280;7095;51.388;6.196;2023-01-04T10:25:37;86312.47;;;-145.32;100.00
14041;BME280;7095;51.388;6.196;2023-01-04T10:28:22;87597.34;;;-145.32;100.00
14041;BME280;7095;51.388;6.196;2023-01-04T10:31:02;88882.69;;;-145.32;100.00
14041;BME280;7095;51.388;6.196;2023-01-04T10:33:57;90682.97;;;-145.32;100.00
14041;BME280;7095;51.388;6.196;2023-01-04T10:36:31;91712.13;;;-145.32;100.00
14041;BME280;7095;51.388;6.196;2023-01-04T10:39:02;91197.50;;;-145.32;100.00
14041;BME280;7095;51.388;6.196;2023-01-04T10:41:34;91197.50;;;-145.32;100.00
14041;BME280;7095;51.388;6.196;2023-01-04T10:44:10;91712.13;;;-145.32;100.00
14041;BME280;7095;51.388;6.196;2023-01-04T10:46:47;91969.47;;;-145.32;100.00
14041;BME280;7095;51.388;6.196;2023-01-04T10:49:24;92226.81;;;-145.32;100.00
14041;BME280;7095;51.388;6.196;2023-01-04T10:52:01;93256.44;;;-145.32;100.00
14041;BME280;7095;51.388;6.196;2023-01-04T10:54:37;93771.38;;;-145.32;100.00
14041;BME280;7095;51.388;6.196;2023-01-04T10:57:10;94028.84;;;-145.32;100.00
14041;BME280;7095;51.388;6.196;2023-01-04T10:59:46;94543.91;;;-145.32;100.00
14041;BME280;7095;51.388;6.196;2023-01-04T11:02:21;94543.91;;;-145.32;100.00
14041;BME280;7095;51.388;6.196;2023-01-04T11:04:57;96089.47;;;-145.32;100.00
14041;BME280;7095;51.388;6.196;2023-01-04T11:07:35;96089.47;;;-145.32;100.00
14041;BME280;7095;51.388;6.196;2023-01-04T11:10:09;96604.81;;;-145.32;100.00
14041;BME280;7095;51.388;6.196;2023-01-04T11:12:38;96862.50;;;-145.32;100.00
14041;BME280;7095;51.388;6.196;2023-01-04T11:15:08;96862.50;;;-145.32;100.00
14041;BME280;7095;51.388;6.196;2023-01-04T11:17:37;97120.22;;;-145.32;100.00
14041;BME280;7095;51.388;6.196;2023-01-04T11:20:06;97120.22;;;-145.32;100.00
14041;BME280;7095;51.388;6.196;2023-01-04T11:22:39;96862.50;;;-145.32;100.00
14041;BME280;7095;51.388;6.196;2023-01-04T11:25:12;96862.50;;;-145.32;100.00
14041;BME280;7095;51.388;6.196;2023-01-04T11:28:06;96604.81;;;-145.32;100.00
14041;BME280;7095;51.388;6.196;2023-01-04T11:30:47;97120.22;;;-145.32;100.00
14041;BME280;7095;51.388;6.196;2023-01-04T11:33:19;97377.97;;;-145.32;100.00
14041;BME280;7095;51.388;6.196;2023-01-04T11:35:50;97377.97;;;-145.32;100.00
14041;BME280;7095;51.388;6.196;2023-01-04T11:38:22;97377.97;;;-145.32;100.00
14041;BME280;7095;51.388;6.196;2023-01-04T11:40:59;97635.72;;;-145.32;100.00
14041;BME280;7095;51.388;6.196;2023-01-04T11:43:29;98409.13;;;-145.32;100.00
14041;BME280;7095;51.388;6.196;2023-01-04T11:46:01;98666.94;;;-145.32;100.00
14041;BME280;7095;51.388;6.196;2023-01-04T11:48:36;99956.41;;;-145.32;100.00
14041;BME280;7095;51.388;6.196;2023-01-04T11:51:14;100730.31;;;-145.32;100.00
14041;BME280;7095;51.388;6.196;2023-01-04T11:53:45;101504.38;;;-145.32;100.00
14041;BME280;7095;51.388;6.196;2023-01-04T11:56:25;101504.38;;;-145.32;100.00
14041;BME280;7095;51.388;6.196;2023-01-04T11:59:04;102020.53;;;-145.32;100.00
14041;BME280;7095;51.388;6.196;2023-01-04T12:01:34;102794.91;;;-145.32;100.00
14041;BME280;7095;51.388;6.196;2023-01-04T12:04:09;103053.06;;;-145.32;100.00
14041;BME280;7095;51.388;6.196;2023-01-04T12:06:42;102794.91;;;-145.32;100.00
14041;BME280;7095;51.388;6.196;2023-01-04T12:09:15;103827.66;;;-145.32;100.00
14041;BME280;7095;51.388;6.196;2023-01-04T12:11:46;104085.91;;;-145.32;100.00
14041;BME280;7095;51.388;6.196;2023-01-04T12:14:23;104602.44;;;-145.32;100.00
14041;BME280;7095;51.388;6.196;2023-01-04T12:16:59;105119.03;;;-145.32;100.00
14041;BME280;7095;51.388;6.196;2023-01-04T12:19:30;105377.34;;;-145.32;100.00
14041;BME280;7095;51.388;6.196;2023-01-04T12:22:01;105894.09;;;-145.32;100.00
14041;BME280;7095;51.388;6.196;2023-01-04T12:24:32;106410.88;;;-145.32;100.00
14041;BME280;7095;51.388;6.196;2023-01-04T12:27:02;106410.88;;;-145.32;100.00
14041;BME280;7095;51.388;6.196;2023-01-04T12:29:40;106669.31;;;-145.32;100.00
14041;BME280;7095;51.388;6.196;2023-01-04T12:32:37;106669.31;;;-145.32;100.00
14041;BME280;7095;51.388;6.196;2023-01-04T12:38:55;106669.31;;;-145.32;100.00
14041;BME280;7095;51.388;6.196;2023-01-04T12:45:09;106669.31;;;-145.32;100.00
14041;BME280;7095;51.388;6.196;2023-01-04T12:47:40;106410.88;;;-145.32;100.00
14041;BME280;7095;51.388;6.196;2023-01-04T12:50:27;106152.47;;;-145.32;100.00
14041;BME280;7095;51.388;6.196;2023-01-04T12:53:00;105894.09;;;-145.32;100.00
14041;BME280;7095;51.388;6.196;2023-01-04T12:55:52;105635.72;;;-145.32;100.00
14041;BME280;7095;51.388;6.196;2023-01-04T12:58:40;105894.09;;;-145.32;100.00
14041;BME280;7095;51.388;6.196;2023-01-04T13:01:30;106152.47;;;-145.32;100.00
14041;BME280;7095;51.388;6.196;2023-01-04T13:04:01;106669.31;;;-145.32;100.00
14041;BME280;7095;51.388;6.196;2023-01-04T13:06:35;106669.31;;;-145.32;100.00
14041;BME280;7095;51.388;6.196;2023-01-04T13:09:16;107186.22;;;-145.32;100.00
14041;BME280;7095;51.388;6.196;2023-01-04T13:12:03;107186.22;;;-145.32;100.00
14041;BME280;7095;51.388;6.196;2023-01-04T13:14:39;106927.75;;;-145.32;100.00
14041;BME280;7095;51.388;6.196;2023-01-04T13:17:21;107186.22;;;-145.32;100.00
14041;BME280;7095;51.388;6.196;2023-01-04T13:19:50;107186.22;;;-145.32;100.00